sensor_id;sensor_type;location;lat;lon;timestamp;P1;durP1;ratioP1;P2;durP2;ratioP2
35110;SDS011;21290;50.158;8.658;2023-02-01T00:00:59;5.90;;;4.57;;
35110;SDS011;21290;50.158;8.658;2023-02-01T00:03:25;14.85;;;5.35;;
35110;SDS011;21290;50.158;8.658;2023-02-01T00:05:58;6.47;;;4.50;;
35110;SDS011;21290;50.158;8.658;2023-02-01T00:08:25;6.90;;;5.20;;
35110;SDS011;21290;50.158;8.658;2023-02-01T00:11:02;8.07;;;4.75;;
35110;SDS011;21290;50.158;8.658;2023-02-01T00:13:34;7.97;;;5.03;;
35110;SDS011;21290;50.158;8.658;2023-02-01T00:18:30;8.15;;;5.13;;
35110;SDS011;21290;50.158;8.658;2023-02-01T00:20:57;7.88;;;4.40;;
35110;SDS011;21290;50.158;8.658;2023-02-01T00:23:24;8.45;;;5.32;;
35110;SDS011;21290;50.158;8.658;2023-02-01T00:25:51;9.95;;;4.95;;
35110;SDS011;21290;50.158;8.658;2023-02-01T00:28:17;5.97;;;4.40;;
35110;SDS011;21290;50.158;8.658;2023-02-01T00:30:44;7.57;;;4.40;;
35110;SDS011;21290;50.158;8.658;2023-02-01T00:33:11;8.85;;;4.97;;
35110;SDS011;21290;50.158;8.658;2023-02-01T00:35:38;5.93;;;4.38;;
35110;SDS011;21290;50.158;8.658;2023-02-01T00:38:04;8.80;;;5.10;;
35110;SDS011;21290;50.158;8.658;2023-02-01T00:40:31;6.15;;;4.78;;
35110;SDS011;21290;50.158;8.658;2023-02-01T00:42:57;5.53;;;4.35;;
35110;SDS011;21290;50.158;8.658;2023-02-01T00:45:24;7.40;;;4.80;;
35110;SDS011;21290;50.158;8.658;2023-02-01T00:47:50;7.28;;;4.63;;
35110;SDS011;21290;50.158;8.658;2023-02-01T00:50:17;11.05;;;4.47;;
35110;SDS011;21290;50.158;8.658;2023-02-01T00:52:44;6.10;;;4.32;;
35110;SDS011;21290;50.158;8.658;2023-02-01T00:55:11;7.45;;;4.78;;
35110;SDS011;21290;50.158;8.658;2023-02-01T00:57:37;8.55;;;4.82;;
35110;SDS011;21290;50.158;8.658;2023-02-01T01:00:04;5.82;;;4.40;;
35110;SDS011;21290;50.158;8.658;2023-02-01T01:02:31;9.32;;;4.35;;
35110;SDS011;21290;50.158;8.658;2023-02-01T01:04:57;7.45;;;4.70;;
35110;SDS011;21290;50.158;8.658;2023-02-01T01:07:24;10.25;;;4.65;;
35110;SDS011;21290;50.158;8.658;2023-02-01T01:09:51;6.57;;;4.75;;
35110;SDS011;21290;50.158;8.658;2023-02-01T01:12:17;6.30;;;4.70;;
35110;SDS011;21290;50.158;8.658;2023-02-01T01:14:45;6.70;;;4.63;;
35110;SDS011;21290;50.158;8.658;2023-02-01T01:17:12;6.78;;;4.95;;
35110;SDS011;21290;50.158;8.658;2023-02-01T01:19:38;6.47;;;5.20;;
35110;SDS011;21290;50.158;8.658;2023-02-01T01:22:05;7.35;;;5.00;;
35110;SDS011;21290;50.158;8.658;2023-02-01T01:24:32;10.57;;;5.85;;
35110;SDS011;21290;50.158;8.658;2023-02-01T01:26:58;8.60;;;5.25;;
35110;SDS011;21290;50.158;8.658;2023-02-01T01:29:25;13.10;;;5.80;;
35110;SDS011;21290;50.158;8.658;2023-02-01T01:31:51;8.45;;;5.88;;
35110;SDS011;21290;50.158;8.658;2023-02-01T01:34:18;9.00;;;5.70;;
35110;SDS011;21290;50.158;8.658;2023-02-01T01:36:44;14.60;;;6.57;;
35110;SDS011;21290;50.158;8.658;2023-02-01T01:39:11;8.68;;;6.32;;
35110;SDS011;21290;50.158;8.658;2023-02-01T01:41:38;8.30;;;5.53;;
35110;SDS011;21290;50.158;8.658;2023-02-01T01:44:05;7.63;;;5.57;;
35110;SDS011;21290;50.158;8.658;2023-02-01T01:46:52;7.45;;;5.70;;
35110;SDS011;21290;50.158;8.658;2023-02-01T01:49:20;10.55;;;6.05;;
35110;SDS011;21290;50.158;8.658;2023-02-01T01:51:51;11.23;;;6.18;;
35110;SDS011;21290;50.158;8.658;2023-02-01T01:54:22;15.18;;;6.35;;
35110;SDS011;21290;50.158;8.658;2023-02-01T01:56:55;8.73;;;5.70;;
35110;SDS011;21290;50.158;8.658;2023-02-01T01:59:26;10.73;;;6.68;;
35110;SDS011;21290;50.158;8.658;2023-02-01T02:01:54;10.60;;;6.20;;
35110;SDS011;21290;50.158;8.658;2023-02-01T02:04:21;9.98;;;6.07;;
35110;SDS011;21290;50.158;8.658;2023-02-01T02:09:24;9.32;;;6.47;;
35110;SDS011;21290;50.158;8.658;2023-02-01T02:11:51;9.77;;;6.35;;
35110;SDS011;21290;50.158;8.658;2023-02-01T02:14:19;11.68;;;7.35;;
35110;SDS011;21290;50.158;8.658;2023-02-01T02:25:29;9.70;;;7.65;;
35110;SDS011;21290;50.158;8.658;2023-02-01T02:31:14;14.85;;;8.15;;
35110;SDS011;21290;50.158;8.658;2023-02-01T02:36:58;14.82;;;9.27;;
35110;SDS011;21290;50.158;8.658;2023-02-01T02:39:41;13.68;;;8.43;;
35110;SDS011;21290;50.158;8.658;2023-02-01T02:42:41;9.95;;;7.90;;
35110;SDS011;21290;50.158;8.658;2023-02-01T02:45:44;13.32;;;7.30;;
35110;SDS011;21290;50.158;8.658;2023-02-01T02:48:36;11.93;;;8.27;;
35110;SDS011;21290;50.158;8.658;2023-02-01T02:51:24;13.52;;;8.57;;
35110;SDS011;21290;50.158;8.658;2023-02-01T02:54:15;12.65;;;8.23;;
35110;SDS011;21290;50.158;8.658;2023-02-01T02:57:04;14.02;;;8.27;;
35110;SDS011;21290;50.158;8.658;2023-02-01T03:02:37;14.52;;;8.15;;
35110;SDS011;21290;50.158;8.658;2023-02-01T03:05:23;14.20;;;9.00;;
35110;SDS011;21290;50.158;8.658;2023-02-01T03:07:56;13.05;;;8.73;;
35110;SDS011;21290;50.158;8.658;2023-02-01T03:10:32;17.13;;;9.25;;
35110;SDS011;21290;50.158;8.658;2023-02-01T03:13:13;11.80;;;8.60;;
35110;SDS011;21290;50.158;8.658;2023-02-01T03:18:46;12.93;;;9.00;;
35110;SDS011;21290;50.158;8.658;2023-02-01T03:24:05;14.73;;;8.63;;
35110;SDS011;21290;50.158;8.658;2023-02-01T03:26:36;12.07;;;8.75;;
35110;SDS011;21290;50.158;8.658;2023-02-01T03:29:29;13.82;;;8.77;;
35110;SDS011;21290;50.158;8.658;2023-02-01T03:32:01;14.20;;;8.60;;
35110;SDS011;21290;50.158;8.658;2023-02-01T03:34:28;12.55;;;8.48;;
35110;SDS011;21290;50.158;8.658;2023-02-01T03:36:59;13.77;;;8.45;;
35110;SDS011;21290;50.158;8.658;2023-02-01T03:39:38;13.70;;;8.10;;
35110;SDS011;21290;50.158;8.658;2023-02-01T03:42:16;14.90;;;8.00;;
35110;SDS011;21290;50.158;8.658;2023-02-01T03:47:39;16.38;;;7.60;;
35110;SDS011;21290;50.158;8.658;2023-02-01T03:50:09;9.32;;;7.03;;
35110;SDS011;21290;50.158;8.658;2023-02-01T03:55:10;14.40;;;7.45;;
35110;SDS011;21290;50.158;8.658;2023-02-01T03:57:46;10.90;;;7.15;;
35110;SDS011;21290;50.158;8.658;2023-02-01T04:00:35;11.07;;;6.88;;
35110;SDS011;21290;50.158;8.658;2023-02-01T04:03:02;13.95;;;7.10;;
35110;SDS011;21290;50.158;8.658;2023-02-01T04:05:30;10.38;;;6.60;;
35110;SDS011;21290;50.158;8.658;2023-02-01T04:07:57;11.55;;;7.05;;
35110;SDS011;21290;50.158;8.658;2023-02-01T04:10:23;11.23;;;6.85;;
35110;SDS011;21290;50.158;8.658;2023-02-01T04:12:51;11.25;;;6.50;;
35110;SDS011;21290;50.158;8.658;2023-02-01T04:15:18;10.90;;;6.75;;
35110;SDS011;21290;50.158;8.658;2023-02-01T04:17:44;9.25;;;6.25;;
35110;SDS011;21290;50.158;8.658;2023-02-01T04:20:11;10.02;;;7.00;;
35110;SDS011;21290;50.158;8.658;2023-02-01T04:22:37;11.05;;;7.20;;
35110;SDS011;21290;50.158;8.658;2023-02-01T04:25:04;13.48;;;7.50;;
35110;SDS011;21290;50.158;8.658;2023-02-01T04:27:31;10.85;;;7.43;;
35110;SDS011;21290;50.158;8.658;2023-02-01T04:29:58;10.13;;;6.65;;
35110;SDS011;21290;50.158;8.658;2023-02-01T04:32:25;12.52;;;6.80;;
35110;SDS011;21290;50.158;8.658;2023-02-01T04:34:51;11.07;;;7.63;;
35110;SDS011;21290;50.158;8.658;2023-02-01T04:37:18;12.10;;;7.53;;
35110;SDS011;21290;50.158;8.658;2023-02-01T04:39:44;13.98;;;7.88;;
35110;SDS011;21290;50.158;8.658;2023-02-01T04:42:11;11.32;;;7.53;;
35110;SDS011;21290;50.158;8.658;2023-02-01T04:44:38;14.18;;;7.72;;
35110;SDS011;21290;50.158;8.658;2023-02-01T04:49:35;15.45;;;7.45;;
35110;SDS011;21290;50.158;8.658;2023-02-01T04:52:02;12.23;;;7.18;;
35110;SDS011;21290;50.158;8.658;2023-02-01T04:54:28;17.33;;;8.30;;
35110;SDS011;21290;50.158;8.658;2023-02-01T04:56:55;12.25;;;7.55;;
35110;SDS011;21290;50.158;8.658;2023-02-01T04:59:22;11.82;;;8.15;;
35110;SDS011;21290;50.158;8.658;2023-02-01T05:01:48;18.15;;;7.55;;
35110;SDS011;21290;50.158;8.658;2023-02-01T05:04:15;14.30;;;8.80;;
35110;SDS011;21290;50.158;8.658;2023-02-01T05:06:44;13.50;;;7.57;;
35110;SDS011;21290;50.158;8.658;2023-02-01T05:09:11;12.23;;;7.57;;
35110;SDS011;21290;50.158;8.658;2023-02-01T05:11:37;12.32;;;7.53;;
35110;SDS011;21290;50.158;8.658;2023-02-01T05:14:22;12.15;;;7.35;;
35110;SDS011;21290;50.158;8.658;2023-02-01T05:16:49;13.02;;;7.18;;
35110;SDS011;21290;50.158;8.658;2023-02-01T05:19:15;11.50;;;7.07;;
35110;SDS011;21290;50.158;8.658;2023-02-01T05:21:42;11.23;;;7.43;;
35110;SDS011;21290;50.158;8.658;2023-02-01T05:24:09;8.00;;;6.65;;
35110;SDS011;21290;50.158;8.658;2023-02-01T05:26:36;15.55;;;7.68;;
35110;SDS011;21290;50.158;8.658;2023-02-01T05:29:04;13.00;;;6.93;;
35110;SDS011;21290;50.158;8.658;2023-02-01T05:31:31;9.07;;;6.20;;
35110;SDS011;21290;50.158;8.658;2023-02-01T05:33:58;13.13;;;6.03;;
35110;SDS011;21290;50.158;8.658;2023-02-01T05:36:24;9.77;;;6.68;;
35110;SDS011;21290;50.158;8.658;2023-02-01T05:38:51;14.95;;;6.32;;
35110;SDS011;21290;50.158;8.658;2023-02-01T05:41:18;14.88;;;6.30;;
35110;SDS011;21290;50.158;8.658;2023-02-01T05:43:44;9.65;;;5.68;;
35110;SDS011;21290;50.158;8.658;2023-02-01T05:46:11;14.48;;;6.00;;
35110;SDS011;21290;50.158;8.658;2023-02-01T05:48:39;13.68;;;5.30;;
35110;SDS011;21290;50.158;8.658;2023-02-01T05:51:06;11.55;;;5.60;;
35110;SDS011;21290;50.158;8.658;2023-02-01T05:53:33;10.68;;;6.00;;
35110;SDS011;21290;50.158;8.658;2023-02-01T05:55:59;17.25;;;6.00;;
35110;SDS011;21290;50.158;8.658;2023-02-01T05:58:26;10.13;;;5.13;;
35110;SDS011;21290;50.158;8.658;2023-02-01T06:00:52;10.20;;;5.20;;
35110;SDS011;21290;50.158;8.658;2023-02-01T06:03:19;29.20;;;11.75;;
35110;SDS011;21290;50.158;8.658;2023-02-01T06:05:46;12.48;;;5.28;;
35110;SDS011;21290;50.158;8.658;2023-02-01T06:08:13;12.60;;;4.60;;
35110;SDS011;21290;50.158;8.658;2023-02-01T06:10:40;18.52;;;4.78;;
35110;SDS011;21290;50.158;8.658;2023-02-01T06:13:07;13.02;;;5.45;;
35110;SDS011;21290;50.158;8.658;2023-02-01T06:15:34;10.82;;;4.63;;
35110;SDS011;21290;50.158;8.658;2023-02-01T06:18:03;15.85;;;4.60;;
35110;SDS011;21290;50.158;8.658;2023-02-01T06:20:30;12.70;;;4.20;;
35110;SDS011;21290;50.158;8.658;2023-02-01T06:22:57;13.50;;;4.82;;
35110;SDS011;21290;50.158;8.658;2023-02-01T06:25:23;10.50;;;4.60;;
35110;SDS011;21290;50.158;8.658;2023-02-01T06:27:50;12.95;;;4.18;;
35110;SDS011;21290;50.158;8.658;2023-02-01T06:30:16;17.95;;;4.57;;
35110;SDS011;21290;50.158;8.658;2023-02-01T06:32:43;14.05;;;4.35;;
35110;SDS011;21290;50.158;8.658;2023-02-01T06:35:10;13.77;;;4.30;;
35110;SDS011;21290;50.158;8.658;2023-02-01T06:37:42;8.73;;;3.53;;
35110;SDS011;21290;50.158;8.658;2023-02-01T06:40:09;17.17;;;4.60;;
35110;SDS011;21290;50.158;8.658;2023-02-01T06:42:36;10.80;;;4.40;;
35110;SDS011;21290;50.158;8.658;2023-02-01T06:45:03;12.88;;;3.92;;
35110;SDS011;21290;50.158;8.658;2023-02-01T06:47:32;12.20;;;4.07;;
35110;SDS011;21290;50.158;8.658;2023-02-01T06:49:59;19.40;;;3.95;;
35110;SDS011;21290;50.158;8.658;2023-02-01T06:52:25;12.35;;;4.07;;
35110;SDS011;21290;50.158;8.658;2023-02-01T06:54:52;18.30;;;6.05;;
35110;SDS011;21290;50.158;8.658;2023-02-01T06:57:18;15.18;;;4.75;;
35110;SDS011;21290;50.158;8.658;2023-02-01T06:59:45;19.95;;;4.35;;
35110;SDS011;21290;50.158;8.658;2023-02-01T07:02:11;13.40;;;4.47;;
35110;SDS011;21290;50.158;8.658;2023-02-01T07:04:38;15.15;;;4.13;;
35110;SDS011;21290;50.158;8.658;2023-02-01T07:07:05;13.05;;;4.45;;
35110;SDS011;21290;50.158;8.658;2023-02-01T07:09:31;13.57;;;3.72;;
35110;SDS011;21290;50.158;8.658;2023-02-01T07:11:58;10.77;;;4.05;;
35110;SDS011;21290;50.158;8.658;2023-02-01T07:14:25;14.15;;;4.03;;
35110;SDS011;21290;50.158;8.658;2023-02-01T07:16:51;16.45;;;4.25;;
35110;SDS011;21290;50.158;8.658;2023-02-01T07:19:18;16.50;;;4.43;;
35110;SDS011;21290;50.158;8.658;2023-02-01T07:21:44;12.02;;;4.13;;
35110;SDS011;21290;50.158;8.658;2023-02-01T07:24:11;17.40;;;4.22;;
35110;SDS011;21290;50.158;8.658;2023-02-01T07:26:38;15.48;;;3.90;;
35110;SDS011;21290;50.158;8.658;2023-02-01T07:29:04;14.45;;;3.75;;
35110;SDS011;21290;50.158;8.658;2023-02-01T07:31:31;10.93;;;3.47;;
35110;SDS011;21290;50.158;8.658;2023-02-01T07:33:57;16.27;;;4.13;;
35110;SDS011;21290;50.158;8.658;2023-02-01T07:36:24;10.07;;;2.95;;
35110;SDS011;21290;50.158;8.658;2023-02-01T07:38:51;12.48;;;3.92;;
35110;SDS011;21290;50.158;8.658;2023-02-01T07:41:21;31.67;;;10.80;;
35110;SDS011;21290;50.158;8.658;2023-02-01T07:43:48;14.68;;;3.75;;
35110;SDS011;21290;50.158;8.658;2023-02-01T07:46:16;14.32;;;4.18;;
35110;SDS011;21290;50.158;8.658;2023-02-01T07:48:43;14.10;;;3.97;;
35110;SDS011;21290;50.158;8.658;2023-02-01T07:51:11;18.08;;;3.80;;
35110;SDS011;21290;50.158;8.658;2023-02-01T07:53:38;12.50;;;3.65;;
35110;SDS011;21290;50.158;8.658;2023-02-01T07:56:13;15.63;;;4.07;;
35110;SDS011;21290;50.158;8.658;2023-02-01T07:58:41;13.57;;;3.78;;
35110;SDS011;21290;50.158;8.658;2023-02-01T08:01:18;11.13;;;3.30;;
35110;SDS011;21290;50.158;8.658;2023-02-01T08:03:47;12.50;;;3.33;;
35110;SDS011;21290;50.158;8.658;2023-02-01T08:06:15;15.10;;;3.40;;
35110;SDS011;21290;50.158;8.658;2023-02-01T08:08:42;13.57;;;3.20;;
35110;SDS011;21290;50.158;8.658;2023-02-01T08:11:11;11.90;;;3.53;;
35110;SDS011;21290;50.158;8.658;2023-02-01T08:13:37;13.15;;;3.45;;
35110;SDS011;21290;50.158;8.658;2023-02-01T08:16:05;11.90;;;4.20;;
35110;SDS011;21290;50.158;8.658;2023-02-01T08:18:33;14.70;;;3.97;;
35110;SDS011;21290;50.158;8.658;2023-02-01T08:21:04;9.70;;;3.22;;
35110;SDS011;21290;50.158;8.658;2023-02-01T08:23:39;11.07;;;3.13;;
35110;SDS011;21290;50.158;8.658;2023-02-01T08:26:08;11.13;;;2.97;;
35110;SDS011;21290;50.158;8.658;2023-02-01T08:28:47;16.63;;;3.30;;
35110;SDS011;21290;50.158;8.658;2023-02-01T08:31:16;11.55;;;3.60;;
35110;SDS011;21290;50.158;8.658;2023-02-01T08:33:48;13.38;;;3.75;;
35110;SDS011;21290;50.158;8.658;2023-02-01T08:36:26;13.60;;;3.38;;
35110;SDS011;21290;50.158;8.658;2023-02-01T08:38:54;13.65;;;3.47;;
35110;SDS011;21290;50.158;8.658;2023-02-01T08:41:22;14.38;;;3.13;;
35110;SDS011;21290;50.158;8.658;2023-02-01T08:43:50;16.73;;;3.20;;
35110;SDS011;21290;50.158;8.658;2023-02-01T08:46:17;8.30;;;3.28;;
35110;SDS011;21290;50.158;8.658;2023-02-01T08:48:45;10.30;;;3.65;;
35110;SDS011;21290;50.158;8.658;2023-02-01T08:51:13;11.57;;;3.85;;
35110;SDS011;21290;50.158;8.658;2023-02-01T08:53:42;12.13;;;3.22;;
35110;SDS011;21290;50.158;8.658;2023-02-01T08:56:09;17.45;;;3.58;;
35110;SDS011;21290;50.158;8.658;2023-02-01T08:58:37;13.57;;;4.30;;
35110;SDS011;21290;50.158;8.658;2023-02-01T09:01:08;13.10;;;4.05;;
35110;SDS011;21290;50.158;8.658;2023-02-01T09:03:36;15.55;;;3.65;;
35110;SDS011;21290;50.158;8.658;2023-02-01T09:06:03;10.35;;;3.47;;
35110;SDS011;21290;50.158;8.658;2023-02-01T09:08:36;12.60;;;3.22;;
35110;SDS011;21290;50.158;8.658;2023-02-01T09:11:05;13.68;;;3.10;;
35110;SDS011;21290;50.158;8.658;2023-02-01T09:13:36;13.60;;;3.35;;
35110;SDS011;21290;50.158;8.658;2023-02-01T09:16:03;18.45;;;3.25;;
35110;SDS011;21290;50.158;8.658;2023-02-01T09:18:31;18.38;;;3.53;;
35110;SDS011;21290;50.158;8.658;2023-02-01T09:20:58;14.25;;;3.08;;
35110;SDS011;21290;50.158;8.658;2023-02-01T09:23:24;18.63;;;3.67;;
35110;SDS011;21290;50.158;8.658;2023-02-01T09:25:51;14.45;;;3.47;;
35110;SDS011;21290;50.158;8.658;2023-02-01T09:28:18;15.82;;;3.70;;
35110;SDS011;21290;50.158;8.658;2023-02-01T09:30:45;14.48;;;2.85;;
35110;SDS011;21290;50.158;8.658;2023-02-01T09:33:12;18.20;;;3.25;;
35110;SDS011;21290;50.158;8.658;2023-02-01T09:35:39;15.10;;;3.40;;
35110;SDS011;21290;50.158;8.658;2023-02-01T09:38:05;9.48;;;3.03;;
35110;SDS011;21290;50.158;8.658;2023-02-01T09:40:33;11.38;;;3.25;;
35110;SDS011;21290;50.158;8.658;2023-02-01T09:43:08;15.70;;;3.75;;
35110;SDS011;21290;50.158;8.658;2023-02-01T09:46:18;12.48;;;3.10;;
35110;SDS011;21290;50.158;8.658;2023-02-01T09:48:52;11.38;;;3.00;;
35110;SDS011;21290;50.158;8.658;2023-02-01T09:51:22;12.18;;;2.85;;
35110;SDS011;21290;50.158;8.658;2023-02-01T09:53:55;12.50;;;3.00;;
35110;SDS011;21290;50.158;8.658;2023-02-01T09:56:26;13.93;;;3.45;;
35110;SDS011;21290;50.158;8.658;2023-02-01T09:59:15;16.60;;;2.97;;
35110;SDS011;21290;50.158;8.658;2023-02-01T10:01:51;15.77;;;3.00;;
35110;SDS011;21290;50.158;8.658;2023-02-01T10:04:17;11.90;;;2.80;;
35110;SDS011;21290;50.158;8.658;2023-02-01T10:15:40;11.88;;;2.97;;
35110;SDS011;21290;50.158;8.658;2023-02-01T10:18:36;10.07;;;2.47;;
35110;SDS011;21290;50.158;8.658;2023-02-01T10:21:14;14.90;;;3.20;;
35110;SDS011;21290;50.158;8.658;2023-02-01T10:26:44;10.82;;;2.92;;
35110;SDS011;21290;50.158;8.658;2023-02-01T10:29:18;17.73;;;5.15;;
35110;SDS011;21290;50.158;8.658;2023-02-01T10:31:46;7.78;;;2.45;;
35110;SDS011;21290;50.158;8.658;2023-02-01T10:34:24;10.43;;;3.15;;
35110;SDS011;21290;50.158;8.658;2023-02-01T10:36:55;11.57;;;2.83;;
35110;SDS011;21290;50.158;8.658;2023-02-01T10:39:34;9.73;;;2.67;;
35110;SDS011;21290;50.158;8.658;2023-02-01T10:42:01;16.30;;;4.13;;
35110;SDS011;21290;50.158;8.658;2023-02-01T10:44:28;12.93;;;2.92;;
35110;SDS011;21290;50.158;8.658;2023-02-01T10:49:29;8.30;;;2.88;;
35110;SDS011;21290;50.158;8.658;2023-02-01T10:52:14;10.00;;;2.58;;
35110;SDS011;21290;50.158;8.658;2023-02-01T10:54:45;8.77;;;2.60;;
35110;SDS011;21290;50.158;8.658;2023-02-01T10:57:20;13.32;;;3.38;;
35110;SDS011;21290;50.158;8.658;2023-02-01T10:59:55;11.35;;;2.72;;
35110;SDS011;21290;50.158;8.658;2023-02-01T11:02:25;16.55;;;2.75;;
35110;SDS011;21290;50.158;8.658;2023-02-01T11:05:00;12.60;;;2.95;;
35110;SDS011;21290;50.158;8.658;2023-02-01T11:07:32;27.70;;;7.25;;
35110;SDS011;21290;50.158;8.658;2023-02-01T11:09:58;13.82;;;3.05;;
35110;SDS011;21290;50.158;8.658;2023-02-01T11:15:13;10.52;;;2.55;;
35110;SDS011;21290;50.158;8.658;2023-02-01T11:17:46;16.35;;;3.53;;
35110;SDS011;21290;50.158;8.658;2023-02-01T11:20:18;10.27;;;3.10;;
35110;SDS011;21290;50.158;8.658;2023-02-01T11:22:53;8.15;;;2.53;;
35110;SDS011;21290;50.158;8.658;2023-02-01T11:25:22;16.60;;;2.80;;
35110;SDS011;21290;50.158;8.658;2023-02-01T11:27:51;10.52;;;2.75;;
35110;SDS011;21290;50.158;8.658;2023-02-01T11:30:34;14.70;;;3.00;;
35110;SDS011;21290;50.158;8.658;2023-02-01T11:33:05;7.32;;;2.50;;
35110;SDS011;21290;50.158;8.658;2023-02-01T11:35:37;9.75;;;2.72;;
35110;SDS011;21290;50.158;8.658;2023-02-01T11:38:11;11.98;;;2.45;;
35110;SDS011;21290;50.158;8.658;2023-02-01T11:40:45;17.35;;;4.03;;
35110;SDS011;21290;50.158;8.658;2023-02-01T11:43:28;14.43;;;2.70;;
35110;SDS011;21290;50.158;8.658;2023-02-01T11:45:59;13.45;;;3.30;;
35110;SDS011;21290;50.158;8.658;2023-02-01T11:48:29;17.60;;;3.00;;
35110;SDS011;21290;50.158;8.658;2023-02-01T11:59:08;11.20;;;3.33;;
35110;SDS011;21290;50.158;8.658;2023-02-01T12:01:59;12.02;;;2.75;;
35110;SDS011;21290;50.158;8.658;2023-02-01T12:04:49;17.45;;;2.75;;
35110;SDS011;21290;50.158;8.658;2023-02-01T12:07:29;19.02;;;3.10;;
35110;SDS011;21290;50.158;8.658;2023-02-01T12:10:21;13.80;;;2.65;;
35110;SDS011;21290;50.158;8.658;2023-02-01T12:13:14;14.40;;;2.65;;
35110;SDS011;21290;50.158;8.658;2023-02-01T12:15:59;14.95;;;2.88;;
35110;SDS011;21290;50.158;8.658;2023-02-01T12:18:58;10.18;;;2.70;;
35110;SDS011;21290;50.158;8.658;2023-02-01T12:27:23;22.75;;;3.85;;
35110;SDS011;21290;50.158;8.658;2023-02-01T12:29:55;9.55;;;2.38;;
35110;SDS011;21290;50.158;8.658;2023-02-01T12:35:38;12.60;;;2.60;;
35110;SDS011;21290;50.158;8.658;2023-02-01T12:41:10;14.32;;;3.08;;
35110;SDS011;21290;50.158;8.658;2023-02-01T12:44:08;16.45;;;3.00;;
35110;SDS011;21290;50.158;8.658;2023-02-01T12:47:00;15.77;;;2.92;;
35110;SDS011;21290;50.158;8.658;2023-02-01T12:52:40;14.32;;;2.60;;
35110;SDS011;21290;50.158;8.658;2023-02-01T12:57:42;12.48;;;2.83;;
35110;SDS011;21290;50.158;8.658;2023-02-01T13:00:24;17.95;;;2.95;;
35110;SDS011;21290;50.158;8.658;2023-02-01T13:03:07;15.55;;;2.72;;
35110;SDS011;21290;50.158;8.658;2023-02-01T13:06:02;16.13;;;3.20;;
35110;SDS011;21290;50.158;8.658;2023-02-01T13:08:44;19.25;;;2.80;;
35110;SDS011;21290;50.158;8.658;2023-02-01T13:11:16;9.60;;;2.87;;
35110;SDS011;21290;50.158;8.658;2023-02-01T13:16:42;9.23;;;2.53;;
35110;SDS011;21290;50.158;8.658;2023-02-01T13:21:58;14.63;;;3.60;;
35110;SDS011;21290;50.158;8.658;2023-02-01T13:24:36;18.02;;;3.95;;
35110;SDS011;21290;50.158;8.658;2023-02-01T13:27:14;12.90;;;2.63;;
35110;SDS011;21290;50.158;8.658;2023-02-01T13:29:46;9.75;;;2.40;;
35110;SDS011;21290;50.158;8.658;2023-02-01T13:35:41;9.23;;;2.47;;
35110;SDS011;21290;50.158;8.658;2023-02-01T13:41:57;11.85;;;2.78;;
35110;SDS011;21290;50.158;8.658;2023-02-01T13:45:12;9.57;;;2.90;;
35110;SDS011;21290;50.158;8.658;2023-02-01T13:47:31;14.02;;;2.75;;
35110;SDS011;21290;50.158;8.658;2023-02-01T13:50:12;12.27;;;2.40;;
35110;SDS011;21290;50.158;8.658;2023-02-01T13:55:38;9.98;;;2.30;;
35110;SDS011;21290;50.158;8.658;2023-02-01T14:00:35;10.27;;;2.50;;
35110;SDS011;21290;50.158;8.658;2023-02-01T14:10:46;8.85;;;2.25;;
35110;SDS011;21290;50.158;8.658;2023-02-01T14:13:32;18.63;;;2.70;;
35110;SDS011;21290;50.158;8.658;2023-02-01T14:28:51;12.73;;;2.45;;
35110;SDS011;21290;50.158;8.658;2023-02-01T14:31:34;12.20;;;2.90;;
35110;SDS011;21290;50.158;8.658;2023-02-01T14:34:13;18.73;;;2.13;;
35110;SDS011;21290;50.158;8.658;2023-02-01T14:36:50;10.88;;;2.30;;
35110;SDS011;21290;50.158;8.658;2023-02-01T14:39:29;11.35;;;1.98;;
35110;SDS011;21290;50.158;8.658;2023-02-01T14:42:00;16.15;;;2.55;;
35110;SDS011;21290;50.158;8.658;2023-02-01T14:44:31;8.55;;;2.63;;
35110;SDS011;21290;50.158;8.658;2023-02-01T14:49:41;10.38;;;2.60;;
35110;SDS011;21290;50.158;8.658;2023-02-01T14:52:16;12.68;;;2.63;;
35110;SDS011;21290;50.158;8.658;2023-02-01T14:54:47;8.25;;;2.28;;
35110;SDS011;21290;50.158;8.658;2023-02-01T14:57:19;14.15;;;2.30;;
35110;SDS011;21290;50.158;8.658;2023-02-01T14:59:52;10.77;;;1.92;;
35110;SDS011;21290;50.158;8.658;2023-02-01T15:02:25;7.55;;;2.38;;
35110;SDS011;21290;50.158;8.658;2023-02-01T15:04:54;8.80;;;2.05;;
35110;SDS011;21290;50.158;8.658;2023-02-01T15:07:23;10.88;;;2.10;;
35110;SDS011;21290;50.158;8.658;2023-02-01T15:09:52;13.57;;;3.00;;
35110;SDS011;21290;50.158;8.658;2023-02-01T15:12:23;9.77;;;2.20;;
35110;SDS011;21290;50.158;8.658;2023-02-01T15:15:13;13.73;;;2.35;;
35110;SDS011;21290;50.158;8.658;2023-02-01T15:17:56;11.50;;;2.15;;
35110;SDS011;21290;50.158;8.658;2023-02-01T15:20:26;10.07;;;2.63;;
35110;SDS011;21290;50.158;8.658;2023-02-01T15:25:31;15.63;;;2.90;;
35110;SDS011;21290;50.158;8.658;2023-02-01T15:28:01;11.20;;;2.00;;
35110;SDS011;21290;50.158;8.658;2023-02-01T15:30:29;13.25;;;2.17;;
35110;SDS011;21290;50.158;8.658;2023-02-01T15:33:05;12.73;;;3.17;;
35110;SDS011;21290;50.158;8.658;2023-02-01T15:38:18;9.02;;;2.05;;
35110;SDS011;21290;50.158;8.658;2023-02-01T15:40:59;11.77;;;2.85;;
35110;SDS011;21290;50.158;8.658;2023-02-01T15:46:21;9.05;;;2.58;;
35110;SDS011;21290;50.158;8.658;2023-02-01T15:48:53;12.40;;;2.90;;
35110;SDS011;21290;50.158;8.658;2023-02-01T15:51:21;8.23;;;2.38;;
35110;SDS011;21290;50.158;8.658;2023-02-01T15:53:51;15.35;;;2.35;;
35110;SDS011;21290;50.158;8.658;2023-02-01T15:56:22;8.85;;;1.92;;
35110;SDS011;21290;50.158;8.658;2023-02-01T15:58:52;11.05;;;2.28;;
35110;SDS011;21290;50.158;8.658;2023-02-01T16:01:24;10.05;;;2.42;;
35110;SDS011;21290;50.158;8.658;2023-02-01T16:04:02;11.80;;;2.17;;
35110;SDS011;21290;50.158;8.658;2023-02-01T16:06:31;12.10;;;2.33;;
35110;SDS011;21290;50.158;8.658;2023-02-01T16:09:09;16.05;;;2.67;;
35110;SDS011;21290;50.158;8.658;2023-02-01T16:12:23;9.02;;;2.20;;
35110;SDS011;21290;50.158;8.658;2023-02-01T16:14:29;8.52;;;2.20;;
35110;SDS011;21290;50.158;8.658;2023-02-01T16:16:57;8.95;;;2.35;;
35110;SDS011;21290;50.158;8.658;2023-02-01T16:19:24;8.70;;;2.00;;
35110;SDS011;21290;50.158;8.658;2023-02-01T16:21:54;11.68;;;2.88;;
35110;SDS011;21290;50.158;8.658;2023-02-01T16:24:22;10.50;;;2.40;;
35110;SDS011;21290;50.158;8.658;2023-02-01T16:26:51;11.27;;;2.67;;
35110;SDS011;21290;50.158;8.658;2023-02-01T16:29:17;11.18;;;2.10;;
35110;SDS011;21290;50.158;8.658;2023-02-01T16:31:44;8.82;;;2.13;;
35110;SDS011;21290;50.158;8.658;2023-02-01T16:34:14;11.75;;;2.38;;
35110;SDS011;21290;50.158;8.658;2023-02-01T16:36:48;16.17;;;2.83;;
35110;SDS011;21290;50.158;8.658;2023-02-01T16:39:18;12.82;;;2.53;;
35110;SDS011;21290;50.158;8.658;2023-02-01T16:41:45;6.85;;;2.20;;
35110;SDS011;21290;50.158;8.658;2023-02-01T16:44:12;9.63;;;2.15;;
35110;SDS011;21290;50.158;8.658;2023-02-01T16:46:40;8.73;;;2.45;;
35110;SDS011;21290;50.158;8.658;2023-02-01T16:49:22;11.07;;;2.15;;
35110;SDS011;21290;50.158;8.658;2023-02-01T16:51:50;15.40;;;3.17;;
35110;SDS011;21290;50.158;8.658;2023-02-01T16:54:21;9.20;;;2.70;;
35110;SDS011;21290;50.158;8.658;2023-02-01T16:56:48;20.75;;;8.95;;
35110;SDS011;21290;50.158;8.658;2023-02-01T16:59:14;12.38;;;3.97;;
35110;SDS011;21290;50.158;8.658;2023-02-01T17:01:41;11.60;;;2.97;;
35110;SDS011;21290;50.158;8.658;2023-02-01T17:04:09;10.18;;;2.60;;
35110;SDS011;21290;50.158;8.658;2023-02-01T17:06:36;11.98;;;2.83;;
35110;SDS011;21290;50.158;8.658;2023-02-01T17:09:03;9.98;;;3.17;;
35110;SDS011;21290;50.158;8.658;2023-02-01T17:11:30;19.80;;;4.32;;